Weather at Cairns International Airport

Public forecast

Using degrees Celsius for public forecast. Weather courtesy of forecast.io.

Current aviation weather report (METAR) for Cairns International Airport

2024/04/23 10:00 (retrieved 25 minutes ago)

YBCS 231000Z AUTO 17009KT 9999 // BKN023 OVC063 25/22 Q1013

Aviation forecast (TAF) for Cairns International Airport

2024/04/23 09:09 Ammendment (retrieved 1 hour ago)

TAF AMD YBCS 230906Z 2309/2406 18010KT 9999 -SHRA SCT020 BKN040 FM240000 15014KT 9999 -SHRA SCT030 INTER 2310/2403 3000 SHRA BKN015